Startpagina
METAR-TAF:

METAR-TAF

Vliegvelden :

Internationale Luchthaven Nội Bài

Hanoi, Vietnam

breedte: 21-01N, lengte: 105-48E, hoogte: 6 m

Actueel weer

Dit bericht is 36 minuten geleden gemaakt, om 21:30 UTC
Weinig wind
Temperatuur 26°C
Vochtigheid 100%
Druk 1002 hPa
Zicht: 5000 m
nevel

METAR: VVNB 182130Z 00000KT 5000 BR NSC 26/26 Q1002 NOSIG

Tijdstip: 05:06 (22:06 UTC)

Verwachting

Dit bericht is 5 uur en het 6 minuten geleden gemaakt, om 17:00 UTC
Verwachting geldig van 18 om 18 UTC tot 19 om 18 UTC
Wind 4 kt uit het westnoordwesten
Zicht: 6000 m
Weinig wolken op 2500 ft
Tijdelijke
van 18 om 20 UTC tot 19 om 01 UTC
Zicht: 2500 m
Verspreide wolken op 1000 ft
Gebroken wolken op 4000 ft
lichte regen, nevel
Tijdelijke
van 19 om 04 UTC tot 19 om 07 UTC
Zicht: 4000 m
Verspreide wolken op 1500 ft
Weinig wolken op 2500 ft, Stapelwolken.
Gebroken wolken op 5000 ft
regen

TAF: VVNB 181700Z 1818/1918 30004KT 6000 FEW025 TEMPO 1820/1901 2500 -RA BR SCT010 BKN040 TEMPO 1904/1907 4000 RA SCT015 FEW025TCU BKN050

Waarnemingen en weersverwachtingen van meer dan 4000 vliegvelden (METAR en TAF).

De beschikbare stations zijn de gele en rode punten op de kaart.

Ga met uw muis naar het station om de naam te zien.

Klik dan om waarnemingen en weersverwachtingen te zien.

kaart wijzigen: klik op de groene knoppen met een zwart kruis om in te zoomen, op de groene knop met een streepje om uit te zoomen of op de groene pijlen voor aangrenzende kaarten.


METAR-TAF: